createdAt,value
2017-02-27T00:00:37.421Z,9.72
2017-02-27T00:01:18.200Z,9.73
2017-02-27T00:01:58.758Z,9.66
2017-02-27T00:02:39.538Z,9.74
2017-02-27T00:03:20.321Z,9.69
2017-02-27T00:04:01.205Z,9.73
2017-02-27T00:04:41.750Z,9.76
2017-02-27T00:05:22.459Z,9.69
2017-02-27T00:06:03.252Z,9.65
2017-02-27T00:06:44.050Z,9.61
2017-02-27T00:07:24.681Z,9.76
2017-02-27T00:08:05.414Z,9.64
2017-02-27T00:08:46.107Z,9.66
2017-02-27T00:09:26.885Z,9.65
2017-02-27T00:10:07.680Z,9.69
2017-02-27T00:10:48.394Z,9.74
2017-02-27T00:11:29.148Z,9.72
2017-02-27T00:12:09.802Z,9.73
2017-02-27T00:12:50.566Z,9.74
2017-02-27T00:13:31.446Z,9.73
2017-02-27T00:14:12.243Z,9.65
2017-02-27T00:14:52.885Z,9.68
2017-02-27T00:15:33.558Z,9.69
2017-02-27T00:16:14.264Z,9.69
2017-02-27T00:16:55.061Z,9.68
2017-02-27T00:17:35.635Z,9.61
2017-02-27T00:18:16.378Z,9.69
2017-02-27T00:18:57.249Z,9.69
2017-02-27T00:19:37.806Z,9.76
2017-02-27T00:20:18.551Z,9.8
2017-02-27T00:20:59.287Z,9.73
2017-02-27T00:21:39.873Z,9.65
2017-02-27T00:22:20.609Z,9.73
2017-02-27T00:23:01.359Z,9.79
2017-02-27T00:23:41.932Z,9.74
2017-02-27T00:24:22.681Z,9.79
2017-02-27T00:25:03.434Z,9.77
2017-02-27T00:25:44.177Z,9.74
2017-02-27T00:26:24.952Z,9.8
2017-02-27T00:27:05.683Z,9.77
2017-02-27T00:27:46.464Z,9.83
2017-02-27T00:28:27.224Z,9.8
2017-02-27T00:29:07.961Z,9.72
2017-02-27T00:29:48.712Z,9.73
2017-02-27T00:30:29.515Z,9.72
2017-02-27T00:31:10.240Z,9.79
2017-02-27T00:31:50.980Z,9.74
2017-02-27T00:32:31.735Z,9.74
2017-02-27T00:33:12.506Z,9.82
2017-02-27T00:33:53.250Z,9.83
2017-02-27T00:34:34.014Z,9.76
2017-02-27T00:35:14.769Z,9.76
2017-02-27T00:35:55.531Z,9.74
2017-02-27T00:36:36.353Z,9.74
2017-02-27T00:37:17.223Z,9.74
2017-02-27T00:37:58.001Z,9.77
2017-02-27T00:38:38.732Z,9.73
2017-02-27T00:39:19.551Z,9.79
2017-02-27T00:40:00.254Z,9.83
2017-02-27T00:40:41.024Z,9.84
2017-02-27T00:41:21.761Z,9.86
2017-02-27T00:42:02.564Z,9.79
2017-02-27T00:42:43.264Z,9.8
2017-02-27T00:43:23.959Z,9.83
2017-02-27T00:44:04.658Z,9.82
2017-02-27T00:44:45.241Z,9.77
2017-02-27T00:45:26.096Z,9.83
2017-02-27T00:46:06.876Z,9.83
2017-02-27T00:46:47.578Z,9.77
2017-02-27T00:47:28.152Z,9.73
2017-02-27T00:48:08.899Z,9.79
2017-02-27T00:48:49.658Z,9.8
2017-02-27T00:49:30.319Z,9.72
2017-02-27T00:50:11.066Z,9.79
2017-02-27T00:50:51.820Z,9.76
2017-02-27T00:51:32.569Z,9.72
2017-02-27T00:52:13.341Z,9.8
2017-02-27T00:52:54.182Z,9.77
2017-02-27T00:53:34.949Z,9.77
2017-02-27T00:54:15.737Z,9.74
2017-02-27T00:54:56.467Z,9.76
2017-02-27T00:55:37.211Z,9.74
2017-02-27T00:56:17.968Z,9.8
2017-02-27T00:56:58.721Z,9.79
2017-02-27T00:57:39.469Z,9.79
2017-02-27T00:58:20.244Z,9.73
2017-02-27T00:59:00.992Z,9.77
2017-02-27T00:59:41.723Z,9.79
2017-02-27T01:00:22.423Z,9.79
2017-02-27T01:01:03.138Z,9.82
2017-02-27T01:01:43.785Z,9.74
2017-02-27T01:02:24.438Z,9.76
2017-02-27T01:03:05.089Z,9.74
2017-02-27T01:03:45.743Z,9.79
2017-02-27T01:04:26.400Z,9.79
2017-02-27T01:05:07.151Z,9.73
2017-02-27T01:05:47.811Z,9.83
2017-02-27T01:06:28.457Z,9.86
2017-02-27T01:07:09.116Z,9.79
2017-02-27T01:07:49.688Z,9.79
2017-02-27T01:08:30.339Z,9.82
2017-02-27T01:09:11.071Z,9.79
2017-02-27T01:09:51.637Z,9.86
2017-02-27T01:10:32.305Z,9.87
2017-02-27T01:11:12.930Z,9.79
2017-02-27T01:11:53.494Z,9.83
2017-02-27T01:12:34.296Z,9.83
2017-02-27T01:13:14.989Z,9.79
2017-02-27T01:13:55.646Z,9.82
2017-02-27T01:14:36.301Z,9.84
2017-02-27T01:15:16.948Z,9.83
2017-02-27T01:15:57.600Z,9.82
2017-02-27T01:16:38.257Z,9.79
2017-02-27T01:17:18.909Z,9.79
2017-02-27T01:17:59.461Z,9.83
2017-02-27T01:18:40.165Z,9.79
2017-02-27T01:19:20.866Z,9.83
2017-02-27T01:20:01.456Z,9.83
2017-02-27T01:20:42.080Z,9.83
2017-02-27T01:21:22.723Z,9.8
2017-02-27T01:22:03.311Z,9.8
2017-02-27T01:22:43.950Z,9.84
2017-02-27T01:23:24.580Z,9.82
2017-02-27T01:24:05.142Z,9.83
2017-02-27T01:24:45.805Z,9.83
2017-02-27T01:25:26.490Z,9.82
2017-02-27T01:26:07.190Z,9.79
2017-02-27T01:26:47.752Z,9.8
2017-02-27T01:27:28.410Z,9.82
2017-02-27T01:28:09.147Z,9.82
2017-02-27T01:28:49.810Z,9.76
2017-02-27T01:29:30.393Z,9.8
2017-02-27T01:30:11.021Z,9.77
2017-02-27T01:30:51.720Z,9.77
2017-02-27T01:31:32.308Z,9.83
2017-02-27T01:32:12.873Z,9.76
2017-02-27T01:32:53.515Z,9.77
2017-02-27T01:33:34.121Z,9.73
2017-02-27T01:34:14.820Z,9.82
2017-02-27T01:36:57.333Z,9.77
2017-02-27T01:38:18.495Z,9.74
2017-02-27T01:41:01.060Z,9.83
2017-02-27T01:45:45.635Z,9.77
2017-02-27T01:46:26.287Z,9.79
2017-02-27T01:47:07.040Z,9.79
2017-02-27T01:48:28.139Z,9.8
2017-02-27T01:49:08.798Z,9.77
2017-02-27T01:52:32.172Z,9.82
2017-02-27T01:53:12.859Z,9.83
2017-02-27T01:53:53.554Z,9.84
2017-02-27T01:54:34.122Z,9.83
2017-02-27T01:55:14.876Z,9.84
2017-02-27T01:55:55.569Z,9.8
2017-02-27T01:56:36.268Z,9.79
2017-02-27T01:57:16.836Z,9.79
2017-02-27T01:57:57.495Z,9.74
2017-02-27T01:58:38.124Z,9.77
2017-02-27T01:59:18.677Z,9.77
2017-02-27T01:59:59.343Z,9.8
2017-02-27T02:00:39.982Z,9.74
2017-02-27T02:01:20.546Z,9.77
2017-02-27T02:02:01.202Z,9.74
2017-02-27T02:02:41.840Z,9.73
2017-02-27T02:03:22.426Z,9.82
2017-02-27T02:04:03.054Z,9.79
2017-02-27T02:04:43.769Z,9.77
2017-02-27T02:05:24.450Z,9.82
2017-02-27T02:06:05.007Z,9.76
2017-02-27T02:06:45.672Z,9.79
2017-02-27T02:07:26.365Z,9.82
2017-02-27T02:08:06.917Z,9.79
2017-02-27T02:08:47.519Z,9.83
2017-02-27T02:09:28.233Z,9.8
2017-02-27T02:10:08.810Z,9.82
2017-02-27T02:10:49.569Z,9.83
2017-02-27T02:11:30.311Z,9.79
2017-02-27T02:12:10.864Z,9.76
2017-02-27T02:12:51.639Z,9.79
2017-02-27T02:13:32.358Z,9.73
2017-02-27T02:14:13.118Z,9.82
2017-02-27T02:14:53.869Z,9.79
2017-02-27T02:15:34.619Z,9.82
2017-02-27T02:16:15.379Z,9.76
2017-02-27T02:16:56.140Z,9.76
2017-02-27T02:17:36.891Z,9.83
2017-02-27T02:18:17.507Z,9.79
2017-02-27T02:18:58.222Z,9.76
2017-02-27T02:19:39.429Z,9.79
2017-02-27T02:20:20.236Z,9.82
2017-02-27T02:21:00.799Z,9.77
2017-02-27T02:21:41.548Z,9.82
2017-02-27T02:22:22.237Z,9.77
2017-02-27T02:23:02.797Z,9.82
2017-02-27T02:23:43.514Z,9.84
2017-02-27T02:24:24.242Z,9.86
2017-02-27T02:25:04.829Z,9.82
2017-02-27T02:25:45.559Z,9.82
2017-02-27T02:26:26.125Z,9.79
2017-02-27T02:27:06.881Z,9.86
2017-02-27T02:27:47.607Z,9.83
2017-02-27T02:28:28.179Z,9.84
2017-02-27T02:29:08.952Z,9.84
2017-02-27T02:29:49.686Z,9.82
2017-02-27T02:30:30.451Z,9.8
2017-02-27T02:31:11.209Z,9.8
2017-02-27T02:31:51.855Z,9.8
2017-02-27T02:32:32.597Z,9.83
2017-02-27T02:33:13.302Z,9.83
2017-02-27T02:33:53.996Z,9.86
2017-02-27T02:34:34.559Z,9.83
2017-02-27T02:35:15.345Z,9.87
2017-02-27T02:35:56.119Z,9.86
2017-02-27T02:36:36.825Z,9.86
2017-02-27T02:37:17.396Z,9.86
2017-02-27T02:37:58.185Z,9.87
2017-02-27T02:38:38.895Z,9.91
2017-02-27T02:39:19.651Z,9.83
2017-02-27T02:40:00.409Z,9.87
2017-02-27T02:40:41.173Z,9.87
2017-02-27T02:41:21.923Z,9.87
2017-02-27T02:42:02.711Z,9.84
2017-02-27T02:42:43.436Z,9.84
2017-02-27T02:43:24.164Z,9.86
2017-02-27T02:44:04.739Z,9.91
2017-02-27T02:44:45.479Z,9.84
2017-02-27T02:45:26.232Z,9.86
2017-02-27T02:46:06.810Z,9.92
2017-02-27T02:46:47.553Z,9.87
2017-02-27T02:47:28.708Z,9.83
2017-02-27T02:48:09.255Z,9.82
2017-02-27T02:48:50.014Z,9.84
2017-02-27T02:49:30.713Z,9.86
2017-02-27T02:50:11.410Z,9.87
2017-02-27T02:50:51.974Z,9.84
2017-02-27T02:51:32.845Z,9.86
2017-02-27T02:52:14.551Z,9.83
2017-02-27T02:52:55.260Z,9.8
2017-02-27T02:53:36.005Z,9.87
2017-02-27T02:54:16.759Z,9.87
2017-02-27T02:54:57.516Z,9.87
2017-02-27T02:55:38.272Z,9.82
2017-02-27T02:56:19.033Z,9.91
2017-02-27T02:57:00.804Z,9.94
2017-02-27T02:57:41.567Z,9.89
2017-02-27T02:58:22.138Z,9.89
2017-02-27T02:59:02.893Z,9.84
2017-02-27T02:59:43.693Z,9.89
2017-02-27T03:00:24.491Z,9.83
2017-02-27T03:01:05.045Z,9.84
2017-02-27T03:01:45.643Z,9.89
2017-02-27T03:02:26.363Z,9.87
2017-02-27T03:03:07.151Z,9.87
2017-02-27T03:03:47.913Z,9.87
2017-02-27T03:04:28.670Z,9.84
2017-02-27T03:05:09.420Z,9.87
2017-02-27T03:05:50.173Z,9.87
2017-02-27T03:06:30.927Z,9.91
2017-02-27T03:07:11.680Z,9.83
2017-02-27T03:07:52.459Z,9.89
2017-02-27T03:08:33.191Z,9.82
2017-02-27T03:09:13.952Z,9.83
2017-02-27T03:09:54.711Z,9.91
2017-02-27T03:10:35.463Z,9.84
2017-02-27T03:11:16.639Z,9.86
2017-02-27T03:11:57.375Z,9.87
2017-02-27T03:12:38.134Z,9.82
2017-02-27T03:13:19.298Z,9.91
2017-02-27T03:14:00.028Z,9.87
2017-02-27T03:14:40.770Z,9.89
2017-02-27T03:15:21.527Z,9.86
2017-02-27T03:16:02.284Z,9.87
2017-02-27T03:16:43.051Z,9.89
2017-02-27T03:17:23.826Z,9.86
2017-02-27T03:18:04.559Z,9.86
2017-02-27T03:18:45.289Z,9.89
2017-02-27T03:19:26.059Z,9.83
2017-02-27T03:20:06.821Z,9.84
2017-02-27T03:20:47.556Z,9.92
2017-02-27T03:21:28.325Z,9.84
2017-02-27T03:22:09.083Z,9.83
2017-02-27T03:22:49.837Z,9.87
2017-02-27T03:23:30.591Z,9.91
2017-02-27T03:24:11.359Z,9.94
2017-02-27T03:24:52.088Z,9.95
2017-02-27T03:25:32.855Z,9.95
2017-02-27T03:26:13.506Z,9.98
2017-02-27T03:26:54.143Z,9.94
2017-02-27T03:27:34.805Z,9.97
2017-02-27T03:28:15.462Z,9.97
2017-02-27T03:28:56.130Z,9.98
2017-02-27T03:29:36.773Z,9.98
2017-02-27T03:30:17.416Z,9.95
2017-02-27T03:30:58.074Z,9.94
2017-02-27T03:31:38.730Z,9.99
2017-02-27T03:32:19.380Z,9.95
2017-02-27T03:33:00.035Z,9.97
2017-02-27T03:33:41.153Z,9.97
2017-02-27T03:34:21.837Z,10.02
2017-02-27T03:35:02.404Z,9.99
2017-02-27T03:35:43.067Z,9.99
2017-02-27T03:36:23.747Z,9.99
2017-02-27T03:37:04.453Z,10.04
2017-02-27T03:37:45.017Z,9.99
2017-02-27T03:38:25.675Z,9.99
2017-02-27T03:39:06.329Z,10.04
2017-02-27T03:39:47.383Z,9.94
2017-02-27T03:40:28.060Z,10.02
2017-02-27T03:41:08.688Z,9.99
2017-02-27T03:41:49.342Z,10.01
2017-02-27T03:42:30.041Z,9.98
2017-02-27T03:43:10.794Z,9.97
2017-02-27T03:43:51.516Z,9.98
2017-02-27T03:44:32.183Z,9.94
2017-02-27T03:45:12.834Z,9.94
2017-02-27T03:45:53.478Z,9.95
2017-02-27T03:46:34.130Z,9.98
2017-02-27T03:47:14.773Z,9.94
2017-02-27T03:47:55.441Z,9.98
2017-02-27T03:48:36.107Z,9.99
2017-02-27T03:49:16.739Z,9.99
2017-02-27T03:49:57.393Z,10.02
2017-02-27T03:50:38.067Z,9.95
2017-02-27T03:51:18.694Z,9.95
2017-02-27T03:51:59.350Z,10.04
2017-02-27T03:52:39.995Z,9.99
2017-02-27T03:53:20.646Z,10.02
2017-02-27T03:54:01.312Z,10.09
2017-02-27T03:54:41.957Z,10.05
2017-02-27T03:55:22.612Z,9.99
2017-02-27T03:56:03.256Z,10.04
2017-02-27T03:56:43.924Z,10.01
2017-02-27T03:57:24.579Z,9.99
2017-02-27T03:58:05.224Z,10.04
2017-02-27T03:58:45.886Z,9.95
2017-02-27T03:59:26.526Z,9.95
2017-02-27T04:00:07.186Z,9.97
2017-02-27T04:00:47.843Z,9.99
2017-02-27T04:01:28.589Z,9.98
2017-02-27T04:02:09.257Z,10.04
2017-02-27T04:02:49.910Z,9.97
2017-02-27T04:03:30.592Z,9.99
2017-02-27T04:04:11.740Z,9.99
2017-02-27T04:04:52.367Z,10.02
2017-02-27T04:05:33.019Z,10.04
2017-02-27T04:06:13.696Z,9.97
2017-02-27T04:06:54.319Z,10.02
2017-02-27T04:07:34.969Z,10.01
2017-02-27T04:08:15.635Z,10.01
2017-02-27T04:08:56.324Z,9.98
2017-02-27T04:09:37.018Z,10.01
2017-02-27T04:10:17.612Z,9.98
2017-02-27T04:10:58.245Z,10.02
2017-02-27T04:11:38.837Z,10.02
2017-02-27T04:12:19.527Z,10.02
2017-02-27T04:13:00.078Z,10.01
2017-02-27T04:13:40.747Z,9.97
2017-02-27T04:14:21.391Z,10.01
2017-02-27T04:15:02.065Z,10.05
2017-02-27T04:15:42.764Z,9.98
2017-02-27T04:16:23.392Z,10.01
2017-02-27T04:17:04.441Z,10.04
2017-02-27T04:17:45.077Z,9.98
2017-02-27T04:18:25.729Z,10.01
2017-02-27T04:19:06.364Z,10.02
2017-02-27T04:19:46.958Z,9.97
2017-02-27T04:20:27.584Z,10.02
2017-02-27T04:21:08.221Z,10.02
2017-02-27T04:21:48.789Z,9.97
2017-02-27T04:22:29.450Z,9.99
2017-02-27T04:23:10.079Z,10.02
2017-02-27T04:23:50.645Z,10.09
2017-02-27T04:24:31.303Z,10.12
2017-02-27T04:25:11.993Z,10.07
2017-02-27T04:25:52.693Z,10.09
2017-02-27T04:26:33.259Z,10.09
2017-02-27T04:27:13.906Z,10.1
2017-02-27T04:27:54.640Z,10.16
2017-02-27T04:28:35.313Z,10.07
2017-02-27T04:29:15.885Z,10.1
2017-02-27T04:29:56.526Z,10.05
2017-02-27T04:30:37.214Z,10.1
2017-02-27T04:31:17.815Z,10.05
2017-02-27T04:31:58.427Z,10.07
2017-02-27T04:32:39.027Z,10.12
2017-02-27T04:33:19.733Z,10.07
2017-02-27T04:34:00.423Z,10.09
2017-02-27T04:34:40.991Z,10.12
2017-02-27T04:35:21.659Z,10.09
2017-02-27T04:36:02.340Z,10.15
2017-02-27T04:36:43.036Z,10.13
2017-02-27T04:37:23.614Z,10.07
2017-02-27T04:38:04.269Z,10.05
2017-02-27T04:38:44.952Z,10.1
2017-02-27T04:39:25.649Z,10.07
2017-02-27T04:40:06.213Z,10.1
2017-02-27T04:40:46.865Z,10.12
2017-02-27T04:41:27.559Z,10.02
2017-02-27T04:42:08.261Z,10.01
2017-02-27T04:42:48.863Z,10.05
2017-02-27T04:43:29.494Z,10.02
2017-02-27T04:44:10.177Z,10.12
2017-02-27T04:44:50.881Z,10.07
2017-02-27T04:45:31.443Z,10.04
2017-02-27T04:46:12.100Z,10.05
2017-02-27T04:46:52.797Z,9.99
2017-02-27T04:47:33.484Z,10.07
2017-02-27T04:48:14.070Z,10.01
2017-02-27T04:48:54.731Z,9.99
2017-02-27T04:49:35.398Z,10.04
2017-02-27T04:50:16.096Z,9.99
2017-02-27T04:50:56.673Z,9.97
2017-02-27T04:51:37.319Z,10.02
2017-02-27T04:52:18.017Z,9.99
2017-02-27T04:52:58.706Z,9.95
2017-02-27T04:53:39.292Z,9.99
2017-02-27T04:54:19.936Z,10.07
2017-02-27T04:55:00.620Z,9.97
2017-02-27T04:55:41.324Z,10.01
2017-02-27T04:56:21.884Z,10.01
2017-02-27T04:57:02.536Z,9.98
2017-02-27T04:57:43.236Z,9.97
2017-02-27T04:58:23.927Z,9.95
2017-02-27T04:59:04.494Z,9.95
2017-02-27T04:59:45.167Z,9.97
2017-02-27T05:00:25.846Z,9.95
2017-02-27T05:01:06.545Z,9.92
2017-02-27T05:01:47.110Z,9.97
2017-02-27T05:02:27.781Z,9.87
2017-02-27T05:03:08.456Z,9.94
2017-02-27T05:03:49.151Z,9.84
2017-02-27T05:04:29.730Z,9.89
2017-02-27T05:05:10.390Z,9.94
2017-02-27T05:05:51.062Z,9.84
2017-02-27T05:06:31.766Z,9.92
2017-02-27T05:07:12.342Z,9.86
2017-02-27T05:07:52.991Z,9.86
2017-02-27T05:08:33.674Z,9.84
2017-02-27T05:09:14.479Z,9.84
2017-02-27T05:09:55.062Z,9.89
2017-02-27T05:10:35.716Z,9.87
2017-02-27T05:11:17.318Z,9.91
2017-02-27T05:11:58.020Z,9.82
2017-02-27T05:12:38.587Z,9.82
2017-02-27T05:13:19.239Z,9.84
2017-02-27T05:13:59.924Z,9.83
2017-02-27T05:14:40.628Z,9.74
2017-02-27T05:15:21.205Z,9.83
2017-02-27T05:16:01.852Z,9.8
2017-02-27T05:16:42.536Z,9.74
2017-02-27T05:17:23.238Z,9.76
2017-02-27T05:18:03.842Z,9.72
2017-02-27T05:18:44.452Z,9.79
2017-02-27T05:19:25.092Z,9.76
2017-02-27T05:20:06.076Z,9.69
2017-02-27T05:20:46.738Z,9.82
2017-02-27T05:21:27.358Z,9.69
2017-02-27T05:22:07.940Z,9.73
2017-02-27T05:22:48.580Z,9.74
2017-02-27T05:23:29.213Z,9.74
2017-02-27T05:24:09.774Z,9.69
2017-02-27T05:24:50.441Z,9.79
2017-02-27T05:25:31.136Z,9.73
2017-02-27T05:26:11.825Z,9.69
2017-02-27T05:26:52.429Z,9.68
2017-02-27T05:27:33.071Z,9.8
2017-02-27T05:28:13.740Z,9.74
2017-02-27T05:28:54.353Z,9.68
2017-02-27T05:29:35.031Z,9.68
2017-02-27T05:30:15.647Z,9.68
2017-02-27T05:30:56.318Z,9.64
2017-02-27T05:31:36.960Z,9.76
2017-02-27T05:32:17.629Z,9.73
2017-02-27T05:32:58.261Z,9.76
2017-02-27T05:33:38.918Z,9.72
2017-02-27T05:34:19.578Z,9.72
2017-02-27T05:35:00.213Z,9.72
2017-02-27T05:35:40.899Z,9.72
2017-02-27T05:36:21.583Z,9.68
2017-02-27T05:37:02.301Z,9.64
2017-02-27T05:37:42.986Z,9.69
2017-02-27T05:38:23.608Z,9.74
2017-02-27T05:39:04.231Z,9.72
2017-02-27T05:39:44.801Z,9.69
2017-02-27T05:40:25.473Z,9.69
2017-02-27T05:41:06.193Z,9.68
2017-02-27T05:41:46.768Z,9.66
2017-02-27T05:42:27.415Z,9.65
2017-02-27T05:43:08.049Z,9.68
2017-02-27T05:43:48.639Z,9.73
2017-02-27T05:44:29.276Z,9.72
2017-02-27T05:45:10.134Z,9.66
2017-02-27T05:45:50.694Z,9.65
2017-02-27T05:46:31.378Z,9.68
2017-02-27T05:47:11.939Z,9.74
2017-02-27T05:47:52.656Z,9.68
2017-02-27T05:48:33.372Z,9.65
2017-02-27T05:49:13.958Z,9.72
2017-02-27T05:49:54.624Z,9.73
2017-02-27T05:50:35.220Z,9.65
2017-02-27T05:51:15.813Z,9.66
2017-02-27T05:51:56.450Z,9.69
2017-02-27T05:52:37.084Z,9.64
2017-02-27T05:53:17.656Z,9.65
2017-02-27T05:53:58.348Z,9.76
2017-02-27T05:54:39.085Z,9.65
2017-02-27T05:55:19.734Z,9.59
2017-02-27T05:56:00.383Z,9.66
2017-02-27T05:56:41.046Z,9.66
2017-02-27T05:57:21.672Z,9.65
2017-02-27T05:58:02.328Z,9.66
2017-02-27T05:58:42.977Z,9.65
2017-02-27T05:59:23.720Z,9.66
2017-02-27T06:00:04.316Z,9.62
2017-02-27T06:00:44.945Z,9.68
2017-02-27T06:01:25.582Z,9.64
2017-02-27T06:02:06.144Z,9.66
2017-02-27T06:02:46.811Z,9.66
2017-02-27T06:03:27.552Z,9.65
2017-02-27T06:04:08.190Z,9.64
2017-02-27T06:04:48.840Z,9.64
2017-02-27T06:05:29.506Z,9.64
2017-02-27T06:06:10.156Z,9.73
2017-02-27T06:06:50.800Z,9.64
2017-02-27T06:07:31.456Z,9.65
2017-02-27T06:08:12.104Z,9.66
2017-02-27T06:08:52.694Z,9.68
2017-02-27T06:09:33.324Z,9.65
2017-02-27T06:10:13.968Z,9.68
2017-02-27T06:10:54.579Z,9.68
2017-02-27T06:11:35.193Z,9.66
2017-02-27T06:12:15.823Z,9.66
2017-02-27T06:12:56.406Z,9.65
2017-02-27T06:13:37.044Z,9.62
2017-02-27T06:14:17.749Z,9.65
2017-02-27T06:14:58.445Z,9.65
2017-02-27T06:15:39.007Z,9.65
2017-02-27T06:16:19.703Z,9.69
2017-02-27T06:17:01.387Z,9.64
2017-02-27T06:17:42.041Z,9.65
2017-02-27T06:18:22.729Z,9.66
2017-02-27T06:19:03.356Z,9.68
2017-02-27T06:19:44.062Z,9.61
2017-02-27T06:20:24.711Z,9.62
2017-02-27T06:21:05.263Z,9.66
2017-02-27T06:21:46.059Z,9.68
2017-02-27T06:22:26.767Z,9.62
2017-02-27T06:23:07.419Z,9.72
2017-02-27T06:23:48.058Z,9.68
2017-02-27T06:24:28.640Z,9.65
2017-02-27T06:25:09.285Z,9.72
2017-02-27T06:25:50.014Z,9.74
2017-02-27T06:26:30.563Z,9.74
2017-02-27T06:27:11.246Z,9.73
2017-02-27T06:27:51.983Z,9.72
2017-02-27T06:28:32.536Z,9.72
2017-02-27T06:29:13.236Z,9.68
2017-02-27T06:29:53.943Z,9.73
2017-02-27T06:30:34.591Z,9.74
2017-02-27T06:31:15.265Z,9.79
2017-02-27T06:31:55.916Z,9.73
2017-02-27T06:32:36.682Z,9.74
2017-02-27T06:33:17.308Z,9.64
2017-02-27T06:33:57.977Z,9.72
2017-02-27T06:34:38.730Z,9.73
2017-02-27T06:35:19.385Z,9.73
2017-02-27T06:36:00.152Z,9.59
2017-02-27T06:36:40.795Z,9.72
2017-02-27T06:37:21.454Z,9.69
2017-02-27T06:38:02.230Z,9.65
2017-02-27T06:38:42.957Z,9.72
2017-02-27T06:39:23.607Z,9.72
2017-02-27T06:40:04.259Z,9.77
2017-02-27T06:40:44.911Z,9.74
2017-02-27T06:41:25.575Z,9.74
2017-02-27T06:42:06.196Z,9.68
2017-02-27T06:42:46.867Z,9.73
2017-02-27T06:43:27.513Z,9.74
2017-02-27T06:44:08.194Z,9.74
2017-02-27T06:44:48.823Z,9.69
2017-02-27T06:45:29.472Z,9.76
2017-02-27T06:46:10.165Z,9.72
2017-02-27T06:46:50.995Z,9.72
2017-02-27T06:47:31.633Z,9.82
2017-02-27T06:48:12.289Z,9.73
2017-02-27T06:48:52.949Z,9.79
2017-02-27T06:49:33.686Z,9.79
2017-02-27T06:50:14.246Z,9.73
2017-02-27T06:50:54.811Z,9.74
2017-02-27T06:51:35.391Z,9.64
2017-02-27T06:52:16.055Z,9.77
2017-02-27T06:52:56.598Z,9.76
2017-02-27T06:53:37.316Z,9.74
2017-02-27T06:54:17.962Z,9.76
2017-02-27T06:54:58.611Z,9.73
2017-02-27T06:55:39.282Z,9.8
2017-02-27T06:56:19.928Z,9.8
2017-02-27T06:57:00.525Z,9.84
2017-02-27T06:57:41.132Z,9.79
2017-02-27T06:58:21.821Z,9.79
2017-02-27T06:59:02.389Z,9.8
2017-02-27T06:59:42.985Z,9.79
2017-02-27T07:00:23.569Z,9.84
2017-02-27T07:01:04.134Z,9.79
2017-02-27T07:01:44.705Z,9.79
2017-02-27T07:02:25.343Z,9.83
2017-02-27T07:03:05.922Z,9.87
2017-02-27T07:03:46.520Z,9.92
2017-02-27T07:04:27.102Z,9.86
2017-02-27T07:05:07.672Z,9.86
2017-02-27T07:05:50.274Z,9.87
2017-02-27T07:06:35.495Z,9.84
2017-02-27T07:07:16.112Z,9.87
2017-02-27T07:07:57.712Z,9.89
2017-02-27T07:08:38.312Z,9.89
2017-02-27T07:09:18.934Z,9.89
2017-02-27T07:09:59.538Z,9.83
2017-02-27T07:10:40.179Z,9.94
2017-02-27T07:11:20.933Z,9.91
2017-02-27T07:12:01.502Z,9.86
2017-02-27T07:12:42.118Z,9.97
2017-02-27T07:13:22.812Z,9.91
2017-02-27T07:14:03.429Z,9.94
2017-02-27T07:14:44.047Z,9.95
2017-02-27T07:15:24.665Z,9.94
2017-02-27T07:16:05.319Z,9.98
2017-02-27T07:16:45.973Z,9.95
2017-02-27T07:17:26.606Z,9.97
2017-02-27T07:18:07.272Z,9.98
2017-02-27T07:18:47.922Z,9.99
2017-02-27T07:19:28.568Z,9.99
2017-02-27T07:20:09.235Z,10.04
2017-02-27T07:20:49.828Z,9.98
2017-02-27T07:21:30.419Z,10.02
2017-02-27T07:22:11.002Z,10.02
2017-02-27T07:22:51.616Z,10.01
2017-02-27T07:23:32.245Z,10.07
2017-02-27T07:24:12.848Z,10.05
2017-02-27T07:24:53.516Z,10.09
2017-02-27T07:25:34.219Z,10.09
2017-02-27T07:26:14.953Z,10.09
2017-02-27T07:27:00.602Z,10.07
2017-02-27T07:27:41.280Z,10.13
2017-02-27T07:28:22.092Z,10.09
2017-02-27T07:29:02.699Z,10.07
2017-02-27T07:29:45.433Z,10.09
2017-02-27T07:30:26.060Z,10.17
2017-02-27T07:31:06.729Z,10.2
2017-02-27T07:31:48.438Z,10.19
2017-02-27T07:32:29.087Z,10.19
2017-02-27T07:33:09.967Z,10.31
2017-02-27T07:33:50.607Z,10.28
2017-02-27T07:34:31.343Z,10.3
2017-02-27T07:35:12.007Z,10.15
2017-02-27T07:35:52.730Z,10.26
2017-02-27T07:36:39.036Z,10.25
2017-02-27T07:37:19.643Z,10.22
2017-02-27T07:38:00.226Z,10.28
2017-02-27T07:38:40.803Z,10.25
2017-02-27T07:39:21.376Z,10.28
2017-02-27T07:40:01.937Z,10.28
2017-02-27T07:40:42.501Z,10.3
2017-02-27T07:41:23.068Z,10.23
2017-02-27T07:42:03.645Z,10.31
2017-02-27T07:42:44.206Z,10.35
2017-02-27T07:43:24.785Z,10.31
2017-02-27T07:44:05.355Z,10.33
2017-02-27T07:44:45.921Z,10.34
2017-02-27T07:45:26.528Z,10.4
2017-02-27T07:46:07.108Z,10.34
2017-02-27T07:46:47.688Z,10.34
2017-02-27T07:47:28.334Z,10.4
2017-02-27T07:48:08.896Z,10.41
2017-02-27T07:48:49.472Z,10.46
2017-02-27T07:49:30.056Z,10.48
2017-02-27T07:50:10.644Z,10.48
2017-02-27T07:50:51.306Z,10.51
2017-02-27T07:51:31.883Z,10.46
2017-02-27T07:52:12.438Z,10.51
2017-02-27T07:52:53.026Z,10.48
2017-02-27T07:53:33.623Z,10.54
2017-02-27T07:54:14.260Z,10.57
2017-02-27T07:54:54.933Z,10.49
2017-02-27T07:55:35.507Z,10.51
2017-02-27T07:56:16.074Z,10.53
2017-02-27T07:56:56.627Z,10.61
2017-02-27T07:57:37.188Z,10.53
2017-02-27T07:58:17.824Z,10.54
2017-02-27T07:58:58.381Z,10.51
2017-02-27T07:59:39.792Z,10.51
2017-02-27T08:00:20.431Z,10.53
2017-02-27T08:01:01.011Z,10.6
2017-02-27T08:01:41.648Z,10.61
2017-02-27T08:02:22.203Z,10.63
2017-02-27T08:03:02.790Z,10.49
2017-02-27T08:03:43.366Z,10.49
2017-02-27T08:04:23.993Z,10.67
2017-02-27T08:05:04.665Z,10.63
2017-02-27T08:05:45.241Z,10.64
2017-02-27T08:06:25.814Z,10.64
2017-02-27T08:07:06.393Z,10.74
2017-02-27T08:07:46.952Z,10.63
2017-02-27T08:08:27.517Z,10.74
2017-02-27T08:09:08.117Z,10.75
2017-02-27T08:09:48.692Z,10.74
2017-02-27T08:10:29.303Z,10.79
2017-02-27T08:11:09.861Z,10.78
2017-02-27T08:11:50.439Z,10.87
2017-02-27T08:12:30.991Z,10.87
2017-02-27T08:13:11.577Z,10.79
2017-02-27T08:13:52.160Z,10.89
2017-02-27T08:14:32.708Z,10.89
2017-02-27T08:15:13.282Z,10.86
2017-02-27T08:15:53.886Z,10.9
2017-02-27T08:16:34.465Z,10.92
2017-02-27T08:17:15.051Z,10.99
2017-02-27T08:17:55.690Z,11.02
2017-02-27T08:18:36.250Z,11.02
2017-02-27T08:19:16.807Z,10.99
2017-02-27T08:19:57.456Z,10.99
2017-02-27T08:20:38.025Z,11
2017-02-27T08:21:18.597Z,11
2017-02-27T08:21:59.171Z,11.11
2017-02-27T08:22:39.763Z,11.07
2017-02-27T08:23:20.330Z,11.12
2017-02-27T08:24:00.896Z,11.11
2017-02-27T08:24:41.494Z,11.07
2017-02-27T08:25:22.091Z,11.12
2017-02-27T08:26:02.688Z,11.17
2017-02-27T08:26:43.294Z,11.18
2017-02-27T08:27:23.891Z,11.22
2017-02-27T08:28:04.464Z,11.29
2017-02-27T08:28:45.047Z,11.19
2017-02-27T08:29:25.616Z,11.26
2017-02-27T08:30:06.299Z,11.22
2017-02-27T08:30:46.912Z,11.25
2017-02-27T08:31:27.527Z,11.35
2017-02-27T08:32:08.170Z,11.36
2017-02-27T08:32:48.777Z,11.33
2017-02-27T08:33:29.425Z,11.36
2017-02-27T08:34:10.112Z,11.4
2017-02-27T08:34:50.773Z,11.4
2017-02-27T08:35:31.398Z,11.41
2017-02-27T08:36:12.021Z,11.43
2017-02-27T08:36:52.718Z,11.43
2017-02-27T08:37:33.471Z,11.4
2017-02-27T08:38:14.133Z,11.48
2017-02-27T08:38:54.872Z,11.5
2017-02-27T08:39:35.515Z,11.54
2017-02-27T08:40:16.195Z,11.47
2017-02-27T08:40:56.827Z,11.45
2017-02-27T08:41:37.526Z,11.52
2017-02-27T08:42:18.290Z,11.52
2017-02-27T08:42:58.975Z,11.5
2017-02-27T08:43:39.667Z,11.5
2017-02-27T08:44:20.438Z,11.54
2017-02-27T08:45:01.103Z,11.55
2017-02-27T08:45:41.914Z,11.59
2017-02-27T08:46:22.663Z,11.51
2017-02-27T08:47:05.438Z,11.55
2017-02-27T08:47:46.044Z,11.54
2017-02-27T08:48:26.747Z,11.59
2017-02-27T08:49:07.425Z,11.57
2017-02-27T08:49:48.098Z,11.5
2017-02-27T08:50:28.668Z,11.55
2017-02-27T08:51:09.379Z,11.6
2017-02-27T08:51:49.986Z,11.6
2017-02-27T08:52:30.619Z,11.62
2017-02-27T08:53:11.288Z,11.63
2017-02-27T08:53:51.977Z,11.65
2017-02-27T08:54:32.595Z,11.65
2017-02-27T08:55:13.241Z,11.54
2017-02-27T08:55:54.906Z,11.6
2017-02-27T08:56:35.585Z,11.57
2017-02-27T08:57:16.222Z,11.51
2017-02-27T08:57:56.913Z,11.68
2017-02-27T08:58:37.528Z,11.57
2017-02-27T08:59:18.162Z,11.6
2017-02-27T08:59:58.745Z,11.65
2017-02-27T09:00:39.479Z,11.66
2017-02-27T09:01:20.072Z,11.6
2017-02-27T09:02:00.670Z,11.78
2017-02-27T09:02:41.239Z,11.7
2017-02-27T09:03:21.992Z,11.81
2017-02-27T09:04:02.694Z,11.84
2017-02-27T09:04:43.408Z,11.8
2017-02-27T09:05:25.258Z,11.83
2017-02-27T09:06:05.945Z,11.84
2017-02-27T09:06:46.597Z,11.91
2017-02-27T09:07:27.247Z,11.94
2017-02-27T09:08:07.891Z,11.88
2017-02-27T09:08:48.548Z,11.95
2017-02-27T09:09:29.240Z,12.02
2017-02-27T09:10:09.848Z,12.09